sensor_id;sensor_type;location;lat;lon;timestamp;pressure;altitude;pressure_sealevel;temperature;humidity
4570;BME280;2297;51.442;6.996;2023-06-14T00:01:13;100149.97;;;23.34;25.82
4570;BME280;2297;51.442;6.996;2023-06-14T00:03:40;100155.59;;;23.31;25.69
4570;BME280;2297;51.442;6.996;2023-06-14T00:06:08;100156.16;;;23.23;25.78
4570;BME280;2297;51.442;6.996;2023-06-14T00:08:35;100159.69;;;23.24;25.98
4570;BME280;2297;51.442;6.996;2023-06-14T00:11:01;100155.63;;;23.18;25.94
4570;BME280;2297;51.442;6.996;2023-06-14T00:13:28;100155.50;;;23.20;26.12
4570;BME280;2297;51.442;6.996;2023-06-14T00:15:55;100169.31;;;23.15;25.94
4570;BME280;2297;51.442;6.996;2023-06-14T00:18:22;100171.28;;;23.13;26.00
4570;BME280;2297;51.442;6.996;2023-06-14T00:20:50;100175.91;;;23.11;26.20
4570;BME280;2297;51.442;6.996;2023-06-14T00:23:19;100172.84;;;23.04;26.28
4570;BME280;2297;51.442;6.996;2023-06-14T00:25:45;100179.44;;;23.00;26.43
4570;BME280;2297;51.442;6.996;2023-06-14T00:28:12;100184.09;;;22.98;26.39
4570;BME280;2297;51.442;6.996;2023-06-14T00:30:39;100177.22;;;22.94;26.67
4570;BME280;2297;51.442;6.996;2023-06-14T00:33:05;100185.63;;;22.89;26.49
4570;BME280;2297;51.442;6.996;2023-06-14T00:35:32;100185.47;;;22.80;26.49
4570;BME280;2297;51.442;6.996;2023-06-14T00:37:59;100182.25;;;22.74;26.70
4570;BME280;2297;51.442;6.996;2023-06-14T00:40:28;100185.06;;;22.73;26.98
4570;BME280;2297;51.442;6.996;2023-06-14T00:42:54;100193.69;;;22.65;26.99
4570;BME280;2297;51.442;6.996;2023-06-14T00:45:21;100190.69;;;22.57;26.97
4570;BME280;2297;51.442;6.996;2023-06-14T00:47:49;100195.19;;;22.56;26.75
4570;BME280;2297;51.442;6.996;2023-06-14T00:50:18;100192.09;;;22.50;26.88
4570;BME280;2297;51.442;6.996;2023-06-14T00:52:46;100193.31;;;22.46;27.12
4570;BME280;2297;51.442;6.996;2023-06-14T00:55:13;100198.91;;;22.42;27.05
4570;BME280;2297;51.442;6.996;2023-06-14T00:57:41;100194.19;;;22.33;27.13
4570;BME280;2297;51.442;6.996;2023-06-14T01:00:09;100202.03;;;22.36;27.22
4570;BME280;2297;51.442;6.996;2023-06-14T01:02:36;100196.38;;;22.28;27.13
4570;BME280;2297;51.442;6.996;2023-06-14T01:05:03;100203.56;;;22.27;27.11
4570;BME280;2297;51.442;6.996;2023-06-14T01:07:36;100200.44;;;22.21;26.95
4570;BME280;2297;51.442;6.996;2023-06-14T01:10:21;100207.13;;;22.15;27.20
4570;BME280;2297;51.442;6.996;2023-06-14T01:12:58;100207.78;;;22.06;27.15
4570;BME280;2297;51.442;6.996;2023-06-14T01:15:26;100204.53;;;22.01;27.24
4570;BME280;2297;51.442;6.996;2023-06-14T01:17:54;100212.06;;;21.96;27.28
4570;BME280;2297;51.442;6.996;2023-06-14T01:20:28;100210.13;;;21.85;27.33
4570;BME280;2297;51.442;6.996;2023-06-14T01:22:57;100213.59;;;21.87;27.20
4570;BME280;2297;51.442;6.996;2023-06-14T01:25:25;100208.41;;;21.84;27.34
4570;BME280;2297;51.442;6.996;2023-06-14T01:27:53;100207.56;;;21.83;27.31
4570;BME280;2297;51.442;6.996;2023-06-14T01:30:23;100210.34;;;21.82;27.38
4570;BME280;2297;51.442;6.996;2023-06-14T01:32:51;100202.50;;;21.78;27.37
4570;BME280;2297;51.442;6.996;2023-06-14T01:35:18;100199.81;;;21.78;27.33
4570;BME280;2297;51.442;6.996;2023-06-14T01:37:47;100200.25;;;21.72;27.52
4570;BME280;2297;51.442;6.996;2023-06-14T01:40:17;100200.25;;;21.72;27.51
4570;BME280;2297;51.442;6.996;2023-06-14T01:42:46;100204.84;;;21.70;27.62
4570;BME280;2297;51.442;6.996;2023-06-14T01:45:14;100198.75;;;21.68;27.43
4570;BME280;2297;51.442;6.996;2023-06-14T01:47:42;100201.13;;;21.60;27.53
4570;BME280;2297;51.442;6.996;2023-06-14T01:50:10;100200.34;;;21.58;27.73
4570;BME280;2297;51.442;6.996;2023-06-14T01:52:36;100194.13;;;21.57;27.70
4570;BME280;2297;51.442;6.996;2023-06-14T01:55:04;100201.09;;;21.47;27.74
4570;BME280;2297;51.442;6.996;2023-06-14T01:57:32;100202.16;;;21.44;27.78
4570;BME280;2297;51.442;6.996;2023-06-14T01:59:59;100199.47;;;21.44;27.87
4570;BME280;2297;51.442;6.996;2023-06-14T02:02:25;100193.34;;;21.42;27.82
4570;BME280;2297;51.442;6.996;2023-06-14T02:04:52;100197.19;;;21.38;27.99
4570;BME280;2297;51.442;6.996;2023-06-14T02:07:22;100193.78;;;21.36;27.73
4570;BME280;2297;51.442;6.996;2023-06-14T02:09:49;100195.47;;;21.37;27.84
4570;BME280;2297;51.442;6.996;2023-06-14T02:12:16;100197.59;;;21.32;27.94
4570;BME280;2297;51.442;6.996;2023-06-14T02:14:44;100205.28;;;21.24;27.87
4570;BME280;2297;51.442;6.996;2023-06-14T02:17:11;100201.66;;;21.25;28.19
4570;BME280;2297;51.442;6.996;2023-06-14T02:19:37;100202.84;;;21.21;28.22
4570;BME280;2297;51.442;6.996;2023-06-14T02:22:04;100205.72;;;21.18;28.23
4570;BME280;2297;51.442;6.996;2023-06-14T02:24:31;100204.00;;;21.17;28.22
4570;BME280;2297;51.442;6.996;2023-06-14T02:26:57;100210.53;;;21.13;28.38
4570;BME280;2297;51.442;6.996;2023-06-14T02:29:25;100202.50;;;21.13;28.32
4570;BME280;2297;51.442;6.996;2023-06-14T02:31:53;100204.84;;;21.04;28.33
4570;BME280;2297;51.442;6.996;2023-06-14T02:34:19;100207.19;;;21.09;28.45
4570;BME280;2297;51.442;6.996;2023-06-14T02:36:47;100212.97;;;21.03;28.25
4570;BME280;2297;51.442;6.996;2023-06-14T02:39:14;100207.69;;;21.01;28.35
4570;BME280;2297;51.442;6.996;2023-06-14T02:41:40;100210.59;;;20.98;28.40
4570;BME280;2297;51.442;6.996;2023-06-14T02:44:07;100211.78;;;20.94;28.36
4570;BME280;2297;51.442;6.996;2023-06-14T02:46:33;100209.50;;;20.88;28.49
4570;BME280;2297;51.442;6.996;2023-06-14T02:49:01;100222.16;;;20.86;28.64
4570;BME280;2297;51.442;6.996;2023-06-14T02:51:28;100216.69;;;20.87;28.70
4570;BME280;2297;51.442;6.996;2023-06-14T02:53:55;100218.50;;;20.87;28.50
4570;BME280;2297;51.442;6.996;2023-06-14T02:56:21;100220.31;;;20.86;28.46
4570;BME280;2297;51.442;6.996;2023-06-14T02:58:48;100226.84;;;20.82;28.65
4570;BME280;2297;51.442;6.996;2023-06-14T03:01:16;100227.34;;;20.74;28.49
4570;BME280;2297;51.442;6.996;2023-06-14T03:03:43;100231.78;;;20.75;28.69
4570;BME280;2297;51.442;6.996;2023-06-14T03:06:11;100227.34;;;20.74;28.71
4570;BME280;2297;51.442;6.996;2023-06-14T03:08:39;100232.16;;;20.69;28.65
4570;BME280;2297;51.442;6.996;2023-06-14T03:11:07;100246.53;;;20.68;28.91
4570;BME280;2297;51.442;6.996;2023-06-14T03:13:34;100241.16;;;20.68;28.96
4570;BME280;2297;51.442;6.996;2023-06-14T03:16:00;100235.78;;;20.68;28.93
4570;BME280;2297;51.442;6.996;2023-06-14T03:18:28;100239.47;;;20.67;28.90
4570;BME280;2297;51.442;6.996;2023-06-14T03:21:01;100245.00;;;20.64;28.89
4570;BME280;2297;51.442;6.996;2023-06-14T03:23:29;100244.22;;;20.62;28.84
4570;BME280;2297;51.442;6.996;2023-06-14T03:25:56;100252.44;;;20.59;28.78
4570;BME280;2297;51.442;6.996;2023-06-14T03:28:23;100251.81;;;20.55;28.94
4570;BME280;2297;51.442;6.996;2023-06-14T03:30:49;100256.28;;;20.55;29.10
4570;BME280;2297;51.442;6.996;2023-06-14T03:33:16;100255.63;;;20.51;29.01
4570;BME280;2297;51.442;6.996;2023-06-14T03:35:43;100250.25;;;20.51;28.95
4570;BME280;2297;51.442;6.996;2023-06-14T03:38:10;100258.50;;;20.48;29.15
4570;BME280;2297;51.442;6.996;2023-06-14T03:40:38;100258.59;;;20.47;29.12
4570;BME280;2297;51.442;6.996;2023-06-14T03:43:05;100263.97;;;20.47;29.28
4570;BME280;2297;51.442;6.996;2023-06-14T03:45:31;100262.25;;;20.45;29.05
4570;BME280;2297;51.442;6.996;2023-06-14T03:47:58;100261.88;;;20.37;29.20
4570;BME280;2297;51.442;6.996;2023-06-14T03:50:25;100267.34;;;20.36;29.39
4570;BME280;2297;51.442;6.996;2023-06-14T03:52:52;100280.25;;;20.29;29.31
4570;BME280;2297;51.442;6.996;2023-06-14T03:55:19;100276.63;;;20.30;29.11
4570;BME280;2297;51.442;6.996;2023-06-14T03:57:47;100278.44;;;20.30;29.30
4570;BME280;2297;51.442;6.996;2023-06-14T04:00:14;100281.00;;;20.31;29.30
4570;BME280;2297;51.442;6.996;2023-06-14T04:02:41;100287.53;;;20.27;29.46
4570;BME280;2297;51.442;6.996;2023-06-14T04:05:09;100290.09;;;20.28;29.61
4570;BME280;2297;51.442;6.996;2023-06-14T04:07:36;100289.34;;;20.26;29.84
4570;BME280;2297;51.442;6.996;2023-06-14T04:10:06;100293.19;;;20.22;29.68
4570;BME280;2297;51.442;6.996;2023-06-14T04:12:34;100300.34;;;20.22;29.60
4570;BME280;2297;51.442;6.996;2023-06-14T04:15:02;100292.50;;;20.19;29.55
4570;BME280;2297;51.442;6.996;2023-06-14T04:17:31;100294.97;;;20.07;29.67
4570;BME280;2297;51.442;6.996;2023-06-14T04:19:58;100301.31;;;20.06;29.76
4570;BME280;2297;51.442;6.996;2023-06-14T04:22:25;100302.47;;;20.02;29.67
4570;BME280;2297;51.442;6.996;2023-06-14T04:24:53;100307.72;;;20.04;29.81
4570;BME280;2297;51.442;6.996;2023-06-14T04:27:20;100306.09;;;20.01;29.83
4570;BME280;2297;51.442;6.996;2023-06-14T04:29:50;100304.56;;;19.97;29.86
4570;BME280;2297;51.442;6.996;2023-06-14T04:32:20;100313.03;;;19.89;29.93
4570;BME280;2297;51.442;6.996;2023-06-14T04:34:47;100314.75;;;19.90;30.02
4570;BME280;2297;51.442;6.996;2023-06-14T04:37:14;100320.19;;;19.89;30.08
4570;BME280;2297;51.442;6.996;2023-06-14T04:39:40;100324.00;;;19.85;29.96
4570;BME280;2297;51.442;6.996;2023-06-14T04:42:07;100319.09;;;19.93;30.07
4570;BME280;2297;51.442;6.996;2023-06-14T04:44:38;100324.47;;;19.93;30.06
4570;BME280;2297;51.442;6.996;2023-06-14T04:47:05;100328.06;;;19.92;30.07
4570;BME280;2297;51.442;6.996;2023-06-14T04:49:52;100330.38;;;19.98;30.07
4570;BME280;2297;51.442;6.996;2023-06-14T04:52:19;100327.88;;;19.95;30.21
4570;BME280;2297;51.442;6.996;2023-06-14T04:54:46;100331.34;;;19.97;30.31
4570;BME280;2297;51.442;6.996;2023-06-14T04:57:13;100331.34;;;19.97;30.26
4570;BME280;2297;51.442;6.996;2023-06-14T04:59:42;100329.72;;;19.94;30.37
4570;BME280;2297;51.442;6.996;2023-06-14T05:02:09;100338.59;;;19.95;30.44
4570;BME280;2297;51.442;6.996;2023-06-14T05:04:37;100335.31;;;19.90;30.48
4570;BME280;2297;51.442;6.996;2023-06-14T05:07:06;100339.50;;;19.96;30.54
4570;BME280;2297;51.442;6.996;2023-06-14T05:09:34;100336.72;;;19.97;30.34
4570;BME280;2297;51.442;6.996;2023-06-14T05:12:00;100337.56;;;19.98;30.52
4570;BME280;2297;51.442;6.996;2023-06-14T05:14:27;100333.63;;;20.03;30.47
4570;BME280;2297;51.442;6.996;2023-06-14T05:16:54;100335.47;;;20.03;30.70
4570;BME280;2297;51.442;6.996;2023-06-14T05:19:23;100333.63;;;20.03;30.41
4570;BME280;2297;51.442;6.996;2023-06-14T05:21:50;100336.31;;;20.03;30.42
4570;BME280;2297;51.442;6.996;2023-06-14T05:24:19;100335.56;;;20.01;30.52
4570;BME280;2297;51.442;6.996;2023-06-14T05:26:46;100341.19;;;19.97;30.63
4570;BME280;2297;51.442;6.996;2023-06-14T05:29:14;100349.13;;;19.98;30.33
4570;BME280;2297;51.442;6.996;2023-06-14T05:31:40;100346.56;;;19.97;30.39
4570;BME280;2297;51.442;6.996;2023-06-14T05:34:07;100347.25;;;20.00;30.32
4570;BME280;2297;51.442;6.996;2023-06-14T05:36:35;100341.09;;;19.98;30.33
4570;BME280;2297;51.442;6.996;2023-06-14T05:39:02;100344.19;;;20.06;30.24
4570;BME280;2297;51.442;6.996;2023-06-14T05:41:31;100350.41;;;20.07;30.30
4570;BME280;2297;51.442;6.996;2023-06-14T05:43:58;100345.16;;;20.05;30.47
4570;BME280;2297;51.442;6.996;2023-06-14T05:46:25;100348.56;;;20.07;30.39
4570;BME280;2297;51.442;6.996;2023-06-14T05:48:52;100348.56;;;20.07;30.26
4570;BME280;2297;51.442;6.996;2023-06-14T05:51:18;100353.78;;;20.10;30.15
4570;BME280;2297;51.442;6.996;2023-06-14T05:53:45;100357.03;;;20.16;30.21
4570;BME280;2297;51.442;6.996;2023-06-14T05:56:12;100359.88;;;20.13;30.32
4570;BME280;2297;51.442;6.996;2023-06-14T05:58:40;100367.78;;;20.16;30.17
4570;BME280;2297;51.442;6.996;2023-06-14T06:01:07;100368.91;;;20.26;30.14
4570;BME280;2297;51.442;6.996;2023-06-14T06:03:34;100367.00;;;20.28;30.17
4570;BME280;2297;51.442;6.996;2023-06-14T06:06:01;100365.28;;;20.27;30.01
4570;BME280;2297;51.442;6.996;2023-06-14T06:08:28;100369.88;;;20.25;30.14
4570;BME280;2297;51.442;6.996;2023-06-14T06:10:55;100376.19;;;20.24;30.18
4570;BME280;2297;51.442;6.996;2023-06-14T06:13:21;100376.00;;;20.27;30.07
4570;BME280;2297;51.442;6.996;2023-06-14T06:15:49;100370.28;;;20.33;29.94
4570;BME280;2297;51.442;6.996;2023-06-14T06:18:16;100379.06;;;20.35;29.77
4570;BME280;2297;51.442;6.996;2023-06-14T06:20:42;100379.06;;;20.35;29.90
4570;BME280;2297;51.442;6.996;2023-06-14T06:23:09;100378.72;;;20.41;29.66
4570;BME280;2297;51.442;6.996;2023-06-14T06:25:36;100373.81;;;20.48;29.63
4570;BME280;2297;51.442;6.996;2023-06-14T06:28:03;100376.50;;;20.48;29.73
4570;BME280;2297;51.442;6.996;2023-06-14T06:30:29;100376.41;;;20.50;29.48
4570;BME280;2297;51.442;6.996;2023-06-14T06:32:57;100376.91;;;20.56;29.22
4570;BME280;2297;51.442;6.996;2023-06-14T06:35:24;100382.25;;;20.56;29.45
4570;BME280;2297;51.442;6.996;2023-06-14T06:37:51;100389.69;;;20.67;29.43
4570;BME280;2297;51.442;6.996;2023-06-14T06:40:18;100384.13;;;20.70;29.33
4570;BME280;2297;51.442;6.996;2023-06-14T06:42:44;100389.28;;;20.73;29.33
4570;BME280;2297;51.442;6.996;2023-06-14T06:45:11;100388.44;;;20.73;29.48
4570;BME280;2297;51.442;6.996;2023-06-14T06:47:38;100384.88;;;20.87;29.09
4570;BME280;2297;51.442;6.996;2023-06-14T06:50:07;100402.44;;;20.92;29.34
4570;BME280;2297;51.442;6.996;2023-06-14T06:52:34;100403.09;;;20.96;29.01
4570;BME280;2297;51.442;6.996;2023-06-14T06:55:01;100407.22;;;21.02;28.91
4570;BME280;2297;51.442;6.996;2023-06-14T06:57:28;100404.34;;;21.05;29.01
4570;BME280;2297;51.442;6.996;2023-06-14T06:59:55;100410.16;;;21.11;29.01
4570;BME280;2297;51.442;6.996;2023-06-14T07:02:22;100402.22;;;21.10;28.68
4570;BME280;2297;51.442;6.996;2023-06-14T07:04:48;100413.63;;;21.14;28.62
4570;BME280;2297;51.442;6.996;2023-06-14T07:07:17;100415.75;;;21.08;28.84
4570;BME280;2297;51.442;6.996;2023-06-14T07:09:44;100407.84;;;21.20;28.61
4570;BME280;2297;51.442;6.996;2023-06-14T07:12:11;100418.78;;;21.17;28.61
4570;BME280;2297;51.442;6.996;2023-06-14T07:14:38;100414.09;;;21.20;28.63
4570;BME280;2297;51.442;6.996;2023-06-14T07:17:04;100415.16;;;21.18;28.69
4570;BME280;2297;51.442;6.996;2023-06-14T07:19:31;100419.06;;;21.12;28.44
4570;BME280;2297;51.442;6.996;2023-06-14T07:21:58;100407.13;;;21.03;28.34
4570;BME280;2297;51.442;6.996;2023-06-14T07:24:26;100420.59;;;21.16;28.60
4570;BME280;2297;51.442;6.996;2023-06-14T07:26:53;100411.50;;;21.19;28.52
4570;BME280;2297;51.442;6.996;2023-06-14T07:29:21;100407.25;;;21.29;28.47
4570;BME280;2297;51.442;6.996;2023-06-14T07:31:48;100422.81;;;21.38;28.19
4570;BME280;2297;51.442;6.996;2023-06-14T07:34:14;100417.44;;;21.38;28.33
4570;BME280;2297;51.442;6.996;2023-06-14T07:36:41;100425.94;;;21.31;28.49
4570;BME280;2297;51.442;6.996;2023-06-14T07:39:09;100414.84;;;21.37;28.25
4570;BME280;2297;51.442;6.996;2023-06-14T07:41:37;100415.63;;;21.39;28.13
4570;BME280;2297;51.442;6.996;2023-06-14T07:44:04;100419.63;;;21.46;27.82
4570;BME280;2297;51.442;6.996;2023-06-14T07:46:33;100412.41;;;21.47;28.10
4570;BME280;2297;51.442;6.996;2023-06-14T07:49:00;100414.94;;;21.50;28.23
4570;BME280;2297;51.442;6.996;2023-06-14T07:51:27;100415.72;;;21.65;28.17
4570;BME280;2297;51.442;6.996;2023-06-14T07:53:53;100419.81;;;21.70;27.98
4570;BME280;2297;51.442;6.996;2023-06-14T07:56:20;100427.16;;;21.68;27.85
4570;BME280;2297;51.442;6.996;2023-06-14T07:58:48;100418.31;;;21.66;27.70
4570;BME280;2297;51.442;6.996;2023-06-14T08:01:15;100426.09;;;21.71;27.69
4570;BME280;2297;51.442;6.996;2023-06-14T08:03:42;100428.56;;;21.74;27.84
4570;BME280;2297;51.442;6.996;2023-06-14T08:06:09;100430.31;;;21.88;28.14
4570;BME280;2297;51.442;6.996;2023-06-14T08:08:36;100427.13;;;21.96;28.14
4570;BME280;2297;51.442;6.996;2023-06-14T08:11:02;100430.47;;;21.99;28.15
4570;BME280;2297;51.442;6.996;2023-06-14T08:13:29;100439.22;;;22.03;28.03
4570;BME280;2297;51.442;6.996;2023-06-14T08:15:57;100430.88;;;21.93;27.99
4570;BME280;2297;51.442;6.996;2023-06-14T08:18:25;100433.16;;;21.99;27.96
4570;BME280;2297;51.442;6.996;2023-06-14T08:20:52;100432.97;;;22.02;28.06
4570;BME280;2297;51.442;6.996;2023-06-14T08:23:19;100439.69;;;22.09;28.26
4570;BME280;2297;51.442;6.996;2023-06-14T08:25:47;100428.84;;;21.97;28.20
4570;BME280;2297;51.442;6.996;2023-06-14T08:28:13;100431.31;;;22.00;27.92
4570;BME280;2297;51.442;6.996;2023-06-14T08:30:41;100437.72;;;22.12;27.74
4570;BME280;2297;51.442;6.996;2023-06-14T08:33:09;100424.72;;;22.18;27.76
4570;BME280;2297;51.442;6.996;2023-06-14T08:35:36;100433.22;;;22.25;28.16
4570;BME280;2297;51.442;6.996;2023-06-14T08:38:04;100434.13;;;22.25;28.05
4570;BME280;2297;51.442;6.996;2023-06-14T08:40:36;100444.97;;;22.24;27.60
4570;BME280;2297;51.442;6.996;2023-06-14T08:43:03;100438.63;;;22.25;27.69
4570;BME280;2297;51.442;6.996;2023-06-14T08:45:29;100438.09;;;22.20;27.69
4570;BME280;2297;51.442;6.996;2023-06-14T08:47:56;100432.91;;;22.17;27.71
4570;BME280;2297;51.442;6.996;2023-06-14T08:50:27;100439.78;;;22.21;27.54
4570;BME280;2297;51.442;6.996;2023-06-14T08:52:56;100435.41;;;22.33;27.25
4570;BME280;2297;51.442;6.996;2023-06-14T08:55:23;100438.34;;;22.42;27.35
4570;BME280;2297;51.442;6.996;2023-06-14T08:57:54;100439.97;;;22.45;27.34
4570;BME280;2297;51.442;6.996;2023-06-14T09:00:22;100432.72;;;22.46;27.14
4570;BME280;2297;51.442;6.996;2023-06-14T09:02:49;100431.97;;;22.43;26.82
4570;BME280;2297;51.442;6.996;2023-06-14T09:05:21;100433.25;;;22.38;27.06
4570;BME280;2297;51.442;6.996;2023-06-14T09:07:52;100440.16;;;22.55;27.18
4570;BME280;2297;51.442;6.996;2023-06-14T09:10:20;100435.63;;;22.55;26.93
4570;BME280;2297;51.442;6.996;2023-06-14T09:12:48;100432.03;;;22.69;26.79
4570;BME280;2297;51.442;6.996;2023-06-14T09:15:14;100429.09;;;22.72;26.53
4570;BME280;2297;51.442;6.996;2023-06-14T09:17:42;100434.19;;;22.77;26.43
4570;BME280;2297;51.442;6.996;2023-06-14T09:20:09;100431.78;;;22.72;26.10
4570;BME280;2297;51.442;6.996;2023-06-14T09:22:39;100435.78;;;22.80;25.93
4570;BME280;2297;51.442;6.996;2023-06-14T09:25:08;100440.75;;;22.73;25.53
4570;BME280;2297;51.442;6.996;2023-06-14T09:27:37;100425.56;;;22.85;25.40
4570;BME280;2297;51.442;6.996;2023-06-14T09:30:06;100427.91;;;22.89;25.63
4570;BME280;2297;51.442;6.996;2023-06-14T09:32:36;100424.03;;;22.93;25.71
4570;BME280;2297;51.442;6.996;2023-06-14T09:35:04;100427.69;;;22.92;25.54
4570;BME280;2297;51.442;6.996;2023-06-14T09:37:33;100433.72;;;22.96;25.55
4570;BME280;2297;51.442;6.996;2023-06-14T09:40:00;100437.19;;;22.98;25.54
4570;BME280;2297;51.442;6.996;2023-06-14T09:42:28;100433.03;;;23.18;25.57
4570;BME280;2297;51.442;6.996;2023-06-14T09:44:56;100445.41;;;23.34;25.02
4570;BME280;2297;51.442;6.996;2023-06-14T09:47:23;100440.00;;;23.47;25.31
4570;BME280;2297;51.442;6.996;2023-06-14T09:49:51;100442.50;;;23.37;25.65
4570;BME280;2297;51.442;6.996;2023-06-14T09:52:21;100440.88;;;23.47;25.36
4570;BME280;2297;51.442;6.996;2023-06-14T09:54:48;100437.53;;;23.43;25.45
4570;BME280;2297;51.442;6.996;2023-06-14T09:57:16;100446.34;;;23.46;24.87
4570;BME280;2297;51.442;6.996;2023-06-14T09:59:46;100442.06;;;23.30;25.07
4570;BME280;2297;51.442;6.996;2023-06-14T10:02:19;100433.53;;;23.49;24.95
4570;BME280;2297;51.442;6.996;2023-06-14T10:04:53;100445.31;;;23.35;24.90
4570;BME280;2297;51.442;6.996;2023-06-14T10:07:26;100441.72;;;23.48;24.83
4570;BME280;2297;51.442;6.996;2023-06-14T10:09:55;100431.22;;;23.56;24.31
4570;BME280;2297;51.442;6.996;2023-06-14T10:12:22;100447.13;;;23.48;24.73
4570;BME280;2297;51.442;6.996;2023-06-14T10:14:51;100452.38;;;23.49;24.18
4570;BME280;2297;51.442;6.996;2023-06-14T10:17:33;100450.22;;;23.54;24.60
4570;BME280;2297;51.442;6.996;2023-06-14T10:20:17;100450.47;;;23.75;24.58
4570;BME280;2297;51.442;6.996;2023-06-14T10:22:50;100440.44;;;23.78;24.29
4570;BME280;2297;51.442;6.996;2023-06-14T10:25:26;100441.03;;;23.81;24.55
4570;BME280;2297;51.442;6.996;2023-06-14T10:28:02;100441.81;;;23.83;24.44
4570;BME280;2297;51.442;6.996;2023-06-14T10:30:30;100435.88;;;23.78;23.95
4570;BME280;2297;51.442;6.996;2023-06-14T10:33:04;100445.31;;;23.97;24.14
4570;BME280;2297;51.442;6.996;2023-06-14T10:35:31;100442.50;;;23.98;23.96
4570;BME280;2297;51.442;6.996;2023-06-14T10:38:09;100437.03;;;24.11;24.01
4570;BME280;2297;51.442;6.996;2023-06-14T10:40:36;100429.78;;;24.00;23.92
4570;BME280;2297;51.442;6.996;2023-06-14T10:43:20;100433.00;;;24.05;24.21
4570;BME280;2297;51.442;6.996;2023-06-14T10:46:15;100437.13;;;23.98;24.43
4570;BME280;2297;51.442;6.996;2023-06-14T10:48:42;100420.88;;;24.11;24.24
4570;BME280;2297;51.442;6.996;2023-06-14T10:51:15;100430.19;;;24.18;24.42
4570;BME280;2297;51.442;6.996;2023-06-14T10:53:45;100418.31;;;24.21;24.61
4570;BME280;2297;51.442;6.996;2023-06-14T10:56:23;100430.88;;;24.45;24.17
4570;BME280;2297;51.442;6.996;2023-06-14T10:58:51;100432.22;;;24.50;24.14
4570;BME280;2297;51.442;6.996;2023-06-14T11:01:32;100427.75;;;24.62;24.61
4570;BME280;2297;51.442;6.996;2023-06-14T11:04:07;100428.56;;;24.51;24.53
4570;BME280;2297;51.442;6.996;2023-06-14T11:06:45;100432.16;;;24.63;24.03
4570;BME280;2297;51.442;6.996;2023-06-14T11:09:31;100431.44;;;24.72;24.29
4570;BME280;2297;51.442;6.996;2023-06-14T11:12:03;100431.81;;;24.68;24.50
4570;BME280;2297;51.442;6.996;2023-06-14T11:14:30;100433.88;;;24.75;24.44
4570;BME280;2297;51.442;6.996;2023-06-14T11:16:58;100433.16;;;24.73;24.87
4570;BME280;2297;51.442;6.996;2023-06-14T11:19:25;100437.81;;;24.60;24.97
4570;BME280;2297;51.442;6.996;2023-06-14T11:21:59;100436.00;;;24.72;24.36
4570;BME280;2297;51.442;6.996;2023-06-14T11:24:26;100416.44;;;24.80;24.59
4570;BME280;2297;51.442;6.996;2023-06-14T11:26:52;100429.97;;;24.91;24.31
4570;BME280;2297;51.442;6.996;2023-06-14T11:29:20;100426.53;;;24.89;24.39
4570;BME280;2297;51.442;6.996;2023-06-14T11:31:47;100426.16;;;24.94;24.23
4570;BME280;2297;51.442;6.996;2023-06-14T11:34:15;100427.03;;;25.05;24.07
4570;BME280;2297;51.442;6.996;2023-06-14T11:36:41;100424.19;;;25.07;24.60
4570;BME280;2297;51.442;6.996;2023-06-14T11:39:08;100431.31;;;24.97;24.54
4570;BME280;2297;51.442;6.996;2023-06-14T11:41:37;100432.63;;;24.57;24.65
4570;BME280;2297;51.442;6.996;2023-06-14T11:44:04;100425.28;;;24.59;24.83
4570;BME280;2297;51.442;6.996;2023-06-14T11:46:31;100416.97;;;24.73;24.95
4570;BME280;2297;51.442;6.996;2023-06-14T11:48:58;100417.69;;;24.75;25.04
4570;BME280;2297;51.442;6.996;2023-06-14T11:51:29;100431.44;;;24.72;25.08
4570;BME280;2297;51.442;6.996;2023-06-14T11:53:56;100428.88;;;24.71;24.84
4570;BME280;2297;51.442;6.996;2023-06-14T11:56:23;100428.25;;;24.90;24.94
4570;BME280;2297;51.442;6.996;2023-06-14T11:58:50;100417.44;;;24.90;24.63
4570;BME280;2297;51.442;6.996;2023-06-14T12:01:17;100429.09;;;25.02;25.00
4570;BME280;2297;51.442;6.996;2023-06-14T12:03:47;100437.56;;;25.08;25.02
4570;BME280;2297;51.442;6.996;2023-06-14T12:06:15;100416.50;;;25.25;25.22
4570;BME280;2297;51.442;6.996;2023-06-14T12:08:44;100424.56;;;25.36;25.11
4570;BME280;2297;51.442;6.996;2023-06-14T12:11:14;100414.44;;;25.50;25.25
4570;BME280;2297;51.442;6.996;2023-06-14T12:13:42;100414.50;;;25.27;25.00
4570;BME280;2297;51.442;6.996;2023-06-14T12:16:11;100419.38;;;25.45;24.50
4570;BME280;2297;51.442;6.996;2023-06-14T12:18:39;100414.22;;;25.53;24.62
4570;BME280;2297;51.442;6.996;2023-06-14T12:21:06;100407.84;;;25.75;24.09
4570;BME280;2297;51.442;6.996;2023-06-14T12:23:45;100413.75;;;25.80;24.65
4570;BME280;2297;51.442;6.996;2023-06-14T12:26:13;100418.66;;;25.75;24.47
4570;BME280;2297;51.442;6.996;2023-06-14T12:28:41;100411.47;;;25.64;24.19
4570;BME280;2297;51.442;6.996;2023-06-14T12:31:09;100408.75;;;25.76;24.05
4570;BME280;2297;51.442;6.996;2023-06-14T12:33:36;100410.69;;;25.85;23.81
4570;BME280;2297;51.442;6.996;2023-06-14T12:36:04;100404.22;;;25.97;24.16
4570;BME280;2297;51.442;6.996;2023-06-14T12:38:31;100415.00;;;26.08;24.29
4570;BME280;2297;51.442;6.996;2023-06-14T12:40:59;100417.16;;;26.15;23.37
4570;BME280;2297;51.442;6.996;2023-06-14T12:43:26;100411.84;;;26.24;23.72
4570;BME280;2297;51.442;6.996;2023-06-14T12:45:53;100420.53;;;26.28;23.67
4570;BME280;2297;51.442;6.996;2023-06-14T12:48:19;100421.97;;;26.44;23.21
4570;BME280;2297;51.442;6.996;2023-06-14T12:50:48;100424.16;;;26.50;23.02
4570;BME280;2297;51.442;6.996;2023-06-14T12:53:14;100415.59;;;26.54;23.22
4570;BME280;2297;51.442;6.996;2023-06-14T12:55:42;100415.94;;;26.61;22.75
4570;BME280;2297;51.442;6.996;2023-06-14T12:58:10;100417.28;;;26.77;23.15
4570;BME280;2297;51.442;6.996;2023-06-14T13:00:37;100420.13;;;26.96;22.65
4570;BME280;2297;51.442;6.996;2023-06-14T13:03:04;100417.28;;;27.07;22.27
4570;BME280;2297;51.442;6.996;2023-06-14T13:05:36;100418.47;;;27.15;22.48
4570;BME280;2297;51.442;6.996;2023-06-14T13:08:06;100415.63;;;27.26;22.34
4570;BME280;2297;51.442;6.996;2023-06-14T13:10:33;100416.25;;;27.39;22.38
4570;BME280;2297;51.442;6.996;2023-06-14T13:13:00;100415.97;;;27.43;22.03
4570;BME280;2297;51.442;6.996;2023-06-14T13:15:29;100420.31;;;27.55;22.20